Time;durP1;ratioP1;P1;durP2;ratioP2;P2;SDS_P1;SDS_P2;PMS_P1;PMS_P2;Temp;Humidity;BMP_temperature;BMP_pressure;BME280_temperature;BME280_humidity;BME280_pressure;Samples;Min_cycle;Max_cycle;Signal;HPM_P1;HPM_P2
2022/07/22 00:00:28;;;;;;;12.98;3.13;;;15.40;99.90;;;;;;5001013;28;20068;-41
2022/07/22 00:02:54;;;;;;;10.18;2.20;;;16.30;99.90;;;;;;5001185;28;20406;-40
2022/07/22 00:05:19;;;;;;;9.02;2.28;;;15.60;99.90;;;;;;5000819;28;20128;-42
2022/07/22 00:07:45;;;;;;;12.57;2.33;;;15.40;99.90;;;;;;5000695;28;20567;-40
2022/07/22 00:10:13;;;;;;;8.10;1.90;;;15.60;99.90;;;;;;5000417;28;20046;-39
2022/07/22 00:12:39;;;;;;;11.00;2.30;;;15.60;99.90;;;;;;5000292;28;20407;-40
2022/07/22 00:15:06;;;;;;;8.93;2.00;;;15.40;99.90;;;;;;5003668;28;20426;-40
2022/07/22 00:17:33;;;;;;;10.45;2.28;;;15.40;99.90;;;;;;5000574;28;20565;-41
2022/07/22 00:19:59;;;;;;;14.88;2.50;;;15.80;99.90;;;;;;4999986;28;20052;-40
2022/07/22 00:22:25;;;;;;;11.05;2.40;;;16.90;99.90;;;;;;5000948;28;20042;-40
2022/07/22 00:24:53;;;;;;;10.30;2.33;;;15.40;99.90;;;;;;5000579;28;20045;-41
2022/07/22 00:27:18;;;;;;;11.77;2.20;;;15.50;99.90;;;;;;5000166;28;20057;-41
2022/07/22 00:29:44;;;;;;;13.98;2.65;;;16.30;99.90;;;;;;4999663;28;20053;-40
2022/07/22 00:32:10;;;;;;;11.82;2.42;;;16.60;99.90;;;;;;4999079;28;20069;-41
2022/07/22 00:34:35;;;;;;;10.40;2.40;;;16.40;99.90;;;;;;5002664;28;20038;-40
2022/07/22 00:37:01;;;;;;;10.05;2.25;;;15.90;99.90;;;;;;4999560;28;20042;-41
2022/07/22 00:39:29;;;;;;;10.98;2.55;;;16.00;99.90;;;;;;5012278;28;20041;-40
2022/07/22 00:41:54;;;;;;;8.02;1.90;;;15.50;99.90;;;;;;5000061;28;20121;-40
2022/07/22 00:44:20;;;;;;;11.15;2.40;;;13.60;99.90;;;;;;4999461;28;20474;-39
2022/07/22 00:46:46;;;;;;;8.88;2.03;;;15.50;99.90;;;;;;4999781;28;20050;-40
2022/07/22 00:49:11;;;;;;;6.50;1.95;;;15.50;99.90;;;;;;4999346;28;20069;-39
2022/07/22 00:51:39;;;;;;;8.98;1.95;;;15.60;99.90;;;;;;4999732;28;20379;-40
2022/07/22 00:54:05;;;;;;;9.68;2.25;;;17.40;99.90;;;;;;4999403;28;20495;-40
2022/07/22 00:56:32;;;;;;;10.57;1.90;;;15.50;99.90;;;;;;4999337;28;20517;-40
2022/07/22 00:59:01;;;;;;;7.88;2.13;;;15.80;99.90;;;;;;4999545;28;20042;-40
2022/07/22 01:01:28;;;;;;;8.90;2.03;;;15.30;99.90;;;;;;4999321;28;20073;-42
2022/07/22 01:03:54;;;;;;;9.68;2.20;;;15.50;99.90;;;;;;4999740;28;20044;-41
2022/07/22 01:06:20;;;;;;;9.20;2.00;;;15.30;99.90;;;;;;4999288;28;20085;-41
2022/07/22 01:08:46;;;;;;;7.93;1.80;;;15.30;99.90;;;;;;4998656;28;20174;-40
2022/07/22 01:11:14;;;;;;;8.98;1.80;;;15.60;99.90;;;;;;4980650;28;20046;-40
2022/07/22 01:13:41;;;;;;;9.18;2.08;;;16.50;99.90;;;;;;5008681;28;20109;-41
2022/07/22 01:16:08;;;;;;;10.18;3.17;;;15.30;99.90;;;;;;4999733;28;20125;-41
2022/07/22 01:18:36;;;;;;;10.35;1.70;;;15.10;99.90;;;;;;4999630;28;20544;-40
2022/07/22 01:21:04;;;;;;;15.68;1.98;;;15.20;99.90;;;;;;4999576;28;20046;-40
2022/07/22 01:23:30;;;;;;;8.20;2.17;;;15.20;99.90;;;;;;4999873;28;20041;-40
2022/07/22 01:25:55;;;;;;;7.60;1.88;;;15.30;99.90;;;;;;5000133;28;20048;-40
2022/07/22 01:28:22;;;;;;;8.02;1.80;;;17.00;99.90;;;;;;4999607;28;20058;-40
2022/07/22 01:30:49;;;;;;;7.82;1.80;;;16.50;99.90;;;;;;4999514;28;20525;-41
2022/07/22 01:33:19;;;;;;;6.65;1.88;;;15.30;99.90;;;;;;5009124;28;20073;-40
2022/07/22 01:35:45;;;;;;;6.22;1.50;;;15.30;99.90;;;;;;5000387;28;20396;-41
2022/07/22 01:38:12;;;;;;;7.95;1.55;;;15.30;99.90;;;;;;5009319;28;20053;-40
2022/07/22 01:40:38;;;;;;;5.32;1.52;;;15.30;99.90;;;;;;5002110;28;20121;-43
2022/07/22 01:43:04;;;;;;;8.93;1.85;;;15.60;99.90;;;;;;5000589;28;20045;-40
2022/07/22 01:45:29;;;;;;;11.27;1.92;;;15.40;99.90;;;;;;5003352;28;20056;-40
2022/07/22 01:47:55;;;;;;;10.98;1.85;;;15.30;99.90;;;;;;5006546;28;20038;-40
2022/07/22 01:50:21;;;;;;;6.90;1.77;;;16.00;99.90;;;;;;5002473;28;20045;-40
2022/07/22 01:52:50;;;;;;;7.50;1.95;;;15.30;99.90;;;;;;5002485;28;20045;-41
2022/07/22 01:55:16;;;;;;;7.53;1.85;;;15.20;99.90;;;;;;4984722;28;20060;-41
2022/07/22 01:57:41;;;;;;;9.90;1.92;;;15.50;99.90;;;;;;5002247;28;20045;-40
2022/07/22 02:00:09;;;;;;;6.60;1.88;;;16.60;99.90;;;;;;5002200;28;20050;-40
2022/07/22 02:02:35;;;;;;;7.03;1.75;;;15.20;99.90;;;;;;5002304;28;20034;-40
2022/07/22 02:05:02;;;;;;;13.85;1.95;;;16.50;99.90;;;;;;5002324;28;20079;-41
2022/07/22 02:07:27;;;;;;;7.38;1.50;;;17.20;99.90;;;;;;5002600;28;20057;-41
2022/07/22 02:09:55;;;;;;;9.70;1.65;;;15.00;99.90;;;;;;5002471;28;20681;-40
2022/07/22 02:12:21;;;;;;;8.85;1.80;;;16.20;99.90;;;;;;5001923;28;20403;-40
2022/07/22 02:14:47;;;;;;;7.93;2.13;;;15.20;99.90;;;;;;5002069;28;20111;-41
2022/07/22 02:17:13;;;;;;;8.13;1.52;;;14.90;99.90;;;;;;5002013;28;20413;-40
2022/07/22 02:19:41;;;;;;;6.60;1.58;;;15.30;99.90;;;;;;5014961;28;20461;-42
2022/07/22 02:22:06;;;;;;;7.85;1.65;;;15.20;99.90;;;;;;5000547;28;20593;-41
2022/07/22 02:24:32;;;;;;;8.60;2.10;;;15.50;99.90;;;;;;5001869;28;20038;-40
2022/07/22 02:27:01;;;;;;;8.77;1.48;;;15.90;99.90;;;;;;5002441;28;20038;-40
2022/07/22 02:29:27;;;;;;;7.28;2.25;;;16.50;99.90;;;;;;5002099;28;20430;-40
2022/07/22 02:31:53;;;;;;;5.95;1.38;;;15.20;99.90;;;;;;5002833;28;20118;-40
2022/07/22 02:34:20;;;;;;;9.32;1.73;;;15.30;99.90;;;;;;4985142;28;20139;-41
2022/07/22 02:36:46;;;;;;;10.13;1.90;;;15.50;99.90;;;;;;5002943;28;20262;-40
2022/07/22 02:39:12;;;;;;;6.88;1.50;;;16.00;99.90;;;;;;5002481;28;20410;-40
2022/07/22 02:41:38;;;;;;;7.47;1.80;;;16.00;99.90;;;;;;5002753;28;20054;-41
2022/07/22 02:44:04;;;;;;;6.18;1.45;;;15.10;99.90;;;;;;5002376;28;20069;-41
2022/07/22 02:46:30;;;;;;;6.85;1.73;;;15.10;99.90;;;;;;4984882;28;20046;-40
2022/07/22 02:48:58;;;;;;;10.50;2.08;;;15.10;99.90;;;;;;4984908;28;20065;-42
2022/07/22 02:51:24;;;;;;;6.90;1.42;;;15.10;99.90;;;;;;5002366;28;20510;-41
2022/07/22 02:53:49;;;;;;;8.52;1.58;;;16.10;99.90;;;;;;5002390;28;20100;-40
2022/07/22 02:56:16;;;;;;;8.00;2.03;;;16.00;99.90;;;;;;5001520;28;20575;-40
2022/07/22 02:58:42;;;;;;;6.78;2.00;;;15.10;99.90;;;;;;5014375;28;20582;-40
2022/07/22 03:01:08;;;;;;;10.20;1.80;;;15.10;99.90;;;;;;5001242;28;20050;-40
2022/07/22 03:03:34;;;;;;;6.55;1.98;;;15.20;99.90;;;;;;5001573;28;20045;-48
2022/07/22 03:06:00;;;;;;;6.00;1.55;;;15.10;99.90;;;;;;5001443;28;20050;-42
2022/07/22 03:08:26;;;;;;;8.43;1.48;;;15.10;99.90;;;;;;5001647;28;20046;-41
2022/07/22 03:10:52;;;;;;;4.85;1.98;;;16.10;99.90;;;;;;5001453;28;20056;-42
2022/07/22 03:13:21;;;;;;;6.57;1.85;;;15.10;99.90;;;;;;5001016;28;20577;-40
2022/07/22 03:15:46;;;;;;;8.35;1.60;;;15.10;99.90;;;;;;5000950;28;20100;-40
2022/07/22 03:18:12;;;;;;;7.63;1.73;;;15.20;99.90;;;;;;5001100;28;20038;-41
2022/07/22 03:20:40;;;;;;;9.88;1.70;;;15.40;99.90;;;;;;4983245;28;20050;-41
2022/07/22 03:23:07;;;;;;;11.40;1.75;;;15.00;99.90;;;;;;5000997;28;20042;-41
2022/07/22 03:25:34;;;;;;;6.68;1.85;;;15.10;99.90;;;;;;5001003;28;20437;-40
2022/07/22 03:27:59;;;;;;;8.20;1.70;;;15.20;99.90;;;;;;4982814;28;20045;-41
2022/07/22 03:30:25;;;;;;;7.57;1.70;;;16.20;99.90;;;;;;5000530;28;20048;-41
2022/07/22 03:32:51;;;;;;;7.72;1.40;;;14.90;99.90;;;;;;5000612;28;20137;-41
2022/07/22 03:35:17;;;;;;;6.40;1.40;;;15.40;99.90;;;;;;5000630;28;20427;-41
2022/07/22 03:37:44;;;;;;;8.40;1.60;;;15.00;99.90;;;;;;5000549;28;20077;-42
2022/07/22 03:40:11;;;;;;;6.85;1.70;;;15.10;99.90;;;;;;5000801;28;20128;-41
2022/07/22 03:42:36;;;;;;;4.53;1.35;;;15.00;99.90;;;;;;5001368;28;20108;-41
2022/07/22 03:45:03;;;;;;;5.53;1.40;;;15.10;99.90;;;;;;5000953;28;20046;-40
2022/07/22 03:47:30;;;;;;;7.53;1.83;;;15.00;99.90;;;;;;5001412;28;20061;-41
2022/07/22 03:49:58;;;;;;;5.45;1.40;;;15.10;99.90;;;;;;5001082;28;20129;-42
2022/07/22 03:52:24;;;;;;;5.78;1.42;;;16.20;99.90;;;;;;5000740;28;20457;-42
2022/07/22 03:54:50;;;;;;;7.32;1.63;;;15.20;99.90;;;;;;5001081;28;20042;-42
2022/07/22 03:57:16;;;;;;;5.88;1.30;;;15.40;99.90;;;;;;5000683;28;20046;-41
2022/07/22 03:59:41;;;;;;;7.30;1.40;;;15.10;99.90;;;;;;5000615;28;20061;-43
2022/07/22 04:02:09;;;;;;;5.75;1.33;;;15.00;99.90;;;;;;5000624;28;20088;-40
2022/07/22 04:04:35;;;;;;;8.02;1.75;;;15.00;99.90;;;;;;5000753;28;20124;-42
2022/07/22 04:07:00;;;;;;;9.07;2.35;;;17.10;99.90;;;;;;4999641;28;20449;-42
2022/07/22 04:09:28;;;;;;;6.65;1.40;;;15.10;99.90;;;;;;4999934;28;20042;-40
2022/07/22 04:11:55;;;;;;;6.15;1.50;;;15.30;99.90;;;;;;5000067;28;20045;-41
2022/07/22 04:14:21;;;;;;;10.02;1.52;;;15.40;99.90;;;;;;5000234;28;20049;-40
2022/07/22 04:16:47;;;;;;;8.52;1.88;;;15.30;99.90;;;;;;5000060;28;20038;-42
2022/07/22 04:19:15;;;;;;;6.60;1.33;;;15.50;99.90;;;;;;4999773;28;20414;-41
2022/07/22 04:21:40;;;;;;;11.02;1.83;;;14.90;99.90;;;;;;5000132;28;20030;-42
2022/07/22 04:24:06;;;;;;;9.70;1.77;;;15.00;99.90;;;;;;4981807;28;20777;-42
2022/07/22 04:26:36;;;;;;;7.00;1.45;;;15.10;99.90;;;;;;5000002;28;20049;-41
2022/07/22 04:29:04;;;;;;;7.43;1.48;;;15.10;99.90;;;;;;4999811;28;20089;-40
2022/07/22 04:31:30;;;;;;;5.70;1.25;;;15.00;99.90;;;;;;5012933;28;20053;-41
2022/07/22 04:33:57;;;;;;;5.82;1.30;;;15.00;99.90;;;;;;5003952;28;20666;-40
2022/07/22 04:36:23;;;;;;;7.65;1.48;;;16.30;99.90;;;;;;5018462;28;20069;-41
2022/07/22 04:38:49;;;;;;;7.75;1.50;;;15.00;99.90;;;;;;5000803;28;20069;-41
2022/07/22 04:41:15;;;;;;;8.77;1.65;;;15.00;99.90;;;;;;4982182;28;20115;-42
2022/07/22 04:43:41;;;;;;;6.05;1.42;;;15.10;99.90;;;;;;4999779;28;20037;-44
2022/07/22 04:46:08;;;;;;;8.50;1.88;;;15.90;99.90;;;;;;4999537;28;20046;-44
2022/07/22 04:48:34;;;;;;;7.68;1.52;;;15.20;99.90;;;;;;4999477;28;20820;-44
2022/07/22 04:51:01;;;;;;;11.27;2.08;;;15.90;99.90;;;;;;4999402;28;20034;-45
2022/07/22 04:53:27;;;;;;;5.18;1.55;;;15.20;99.90;;;;;;4999949;28;20592;-44
2022/07/22 04:55:53;;;;;;;4.32;1.35;;;17.20;99.90;;;;;;4985646;28;20056;-43
2022/07/22 04:58:19;;;;;;;5.43;1.60;;;16.70;99.90;;;;;;5008000;28;20064;-42
2022/07/22 05:00:47;;;;;;;10.15;2.72;;;17.20;99.90;;;;;;5000182;28;20718;-42
2022/07/22 05:03:13;;;;;;;9.80;1.80;;;15.00;99.90;;;;;;5000111;28;20518;-43
2022/07/22 05:05:39;;;;;;;7.93;1.65;;;15.20;99.90;;;;;;5001563;28;20049;-41
2022/07/22 05:08:05;;;;;;;8.55;1.80;;;15.80;99.90;;;;;;5010983;28;20399;-41
2022/07/22 05:10:31;;;;;;;8.65;1.50;;;15.30;99.90;;;;;;4999754;28;20120;-42
2022/07/22 05:12:57;;;;;;;8.68;1.80;;;15.30;99.90;;;;;;5000191;28;20129;-42
2022/07/22 05:15:23;;;;;;;5.40;1.45;;;15.50;99.90;;;;;;4982524;28;20125;-43
2022/07/22 05:17:49;;;;;;;10.13;1.40;;;15.40;99.90;;;;;;5001834;28;20323;-45
2022/07/22 05:20:17;;;;;;;7.38;1.70;;;15.80;99.90;;;;;;5004002;28;20038;-44
2022/07/22 05:22:42;;;;;;;7.07;1.42;;;15.70;99.90;;;;;;5015560;28;20049;-42
2022/07/22 05:25:08;;;;;;;7.93;1.77;;;16.00;99.90;;;;;;5004942;28;20038;-43
2022/07/22 05:27:34;;;;;;;9.55;2.55;;;15.40;99.90;;;;;;5003294;28;20365;-44
2022/07/22 05:30:00;;;;;;;6.82;1.70;;;15.30;99.90;;;;;;5003128;28;20065;-43
2022/07/22 05:32:25;;;;;;;9.40;1.70;;;15.40;99.90;;;;;;5003126;28;20038;-44
2022/07/22 05:34:53;;;;;;;7.80;1.63;;;15.50;99.90;;;;;;5004189;28;20398;-41
2022/07/22 05:37:19;;;;;;;6.63;1.33;;;15.60;99.90;;;;;;5002827;28;20108;-43
2022/07/22 05:39:45;;;;;;;5.65;1.42;;;16.60;99.90;;;;;;5005618;28;20042;-42
2022/07/22 05:42:11;;;;;;;7.78;1.45;;;15.50;99.90;;;;;;5003991;28;20045;-41
2022/07/22 05:44:37;;;;;;;8.85;1.60;;;17.90;99.90;;;;;;5002653;28;20149;-41
2022/07/22 05:47:03;;;;;;;4.43;1.15;;;15.60;99.90;;;;;;5002701;28;20042;-42
2022/07/22 05:49:28;;;;;;;8.43;1.48;;;15.50;99.90;;;;;;5002649;28;20049;-44
2022/07/22 05:52:00;;;;;;;12.68;1.70;;;15.40;99.90;;;;;;5002698;28;20050;-43
2022/07/22 05:54:26;;;;;;;7.43;1.58;;;15.50;99.90;;;;;;5002401;28;20396;-42
2022/07/22 05:56:51;;;;;;;6.68;2.15;;;15.60;99.90;;;;;;4985309;28;20057;-45
2022/07/22 05:59:19;;;;;;;9.05;1.58;;;16.80;99.90;;;;;;5015505;28;20046;-43
2022/07/22 06:01:45;;;;;;;9.10;1.30;;;15.80;99.90;;;;;;5002499;28;20149;-41
2022/07/22 06:04:10;;;;;;;6.68;1.48;;;16.10;99.90;;;;;;5007177;28;20129;-41
2022/07/22 06:06:38;;;;;;;5.57;1.20;;;16.90;99.90;;;;;;5002301;28;20133;-41
2022/07/22 06:09:04;;;;;;;10.15;1.50;;;16.30;99.90;;;;;;5002783;28;20050;-46
2022/07/22 06:11:30;;;;;;;7.88;1.45;;;17.30;99.90;;;;;;4984328;28;20161;-41
2022/07/22 06:13:57;;;;;;;10.73;1.63;;;15.90;99.90;;;;;;4986763;28;20054;-42
2022/07/22 06:16:23;;;;;;;7.88;1.70;;;17.20;99.90;;;;;;5002370;28;20498;-42
2022/07/22 06:18:49;;;;;;;18.63;1.55;;;16.00;99.90;;;;;;5002402;28;20048;-41
2022/07/22 06:21:14;;;;;;;7.97;1.60;;;16.90;99.90;;;;;;4984806;28;20058;-42
2022/07/22 06:23:42;;;;;;;7.90;2.08;;;16.20;99.90;;;;;;5002503;28;20073;-45
2022/07/22 06:26:07;;;;;;;8.15;1.65;;;16.30;99.90;;;;;;5002560;28;20092;-42
2022/07/22 06:28:33;;;;;;;6.25;1.33;;;16.10;99.90;;;;;;5002302;28;20049;-42
2022/07/22 06:30:59;;;;;;;6.15;1.45;;;17.00;99.90;;;;;;5001549;28;20042;-44
2022/07/22 06:33:24;;;;;;;6.05;1.38;;;18.10;99.90;;;;;;5002375;28;20046;-42
2022/07/22 06:35:50;;;;;;;9.02;1.90;;;16.10;99.90;;;;;;5002401;28;20229;-42
2022/07/22 06:38:16;;;;;;;7.97;1.40;;;16.10;99.90;;;;;;5002593;28;20045;-42
2022/07/22 06:40:41;;;;;;;7.65;1.40;;;16.30;99.90;;;;;;5002511;28;20045;-43
2022/07/22 06:43:07;;;;;;;8.70;2.25;;;16.20;99.90;;;;;;5002128;28;20042;-43
2022/07/22 06:45:33;;;;;;;10.57;1.58;;;16.30;99.90;;;;;;5002247;28;20049;-41
2022/07/22 06:48:02;;;;;;;9.70;1.63;;;16.30;99.90;;;;;;5002734;28;20073;-42
2022/07/22 06:50:28;;;;;;;3.63;1.23;;;18.00;99.90;;;;;;5014840;28;20049;-42
2022/07/22 06:52:54;;;;;;;8.82;1.77;;;16.40;99.90;;;;;;5002319;28;20046;-41
2022/07/22 06:55:21;;;;;;;17.15;1.60;;;17.20;99.90;;;;;;5001737;28;20058;-42
2022/07/22 06:57:47;;;;;;;7.30;1.88;;;18.70;99.90;;;;;;5012462;28;20137;-41
2022/07/22 07:00:13;;;;;;;6.50;1.55;;;18.20;99.90;;;;;;5001386;28;20137;-42
2022/07/22 07:02:39;;;;;;;6.32;1.30;;;16.60;99.20;;;;;;5013045;28;20085;-41
2022/07/22 07:05:05;;;;;;;10.57;1.63;;;16.70;98.90;;;;;;5001129;28;20155;-43
2022/07/22 07:07:31;;;;;;;8.82;1.40;;;16.80;98.00;;;;;;5001530;28;20038;-41
2022/07/22 07:09:58;;;;;;;10.57;1.70;;;18.80;97.20;;;;;;5001314;28;20041;-41
2022/07/22 07:12:26;;;;;;;9.93;1.90;;;17.90;96.90;;;;;;5001421;28;20049;-42
2022/07/22 07:14:51;;;;;;;8.98;1.35;;;17.00;95.70;;;;;;5000559;28;20119;-44
2022/07/22 07:17:17;;;;;;;7.13;1.52;;;17.50;96.50;;;;;;5000886;28;20344;-41
2022/07/22 07:19:46;;;;;;;8.68;1.50;;;17.00;96.80;;;;;;5000871;28;20128;-44
2022/07/22 07:22:12;;;;;;;6.70;1.38;;;17.00;96.80;;;;;;5000635;28;20441;-47
2022/07/22 07:24:37;;;;;;;6.55;1.20;;;17.20;96.50;;;;;;5000590;28;20120;-42
2022/07/22 07:27:03;;;;;;;7.07;1.20;;;17.00;96.30;;;;;;5000402;28;20499;-41
2022/07/22 07:29:29;;;;;;;8.43;1.52;;;17.20;96.10;;;;;;4999829;28;20050;-41
2022/07/22 07:31:54;;;;;;;5.32;1.48;;;17.10;95.50;;;;;;5000927;28;20038;-45
2022/07/22 07:34:20;;;;;;;8.05;1.33;;;17.10;95.40;;;;;;5002145;28;20993;-41
2022/07/22 07:36:46;;;;;;;5.63;1.50;;;17.20;95.00;;;;;;5016674;28;20855;-42
2022/07/22 07:39:12;;;;;;;8.88;1.33;;;17.20;94.20;;;;;;5000895;28;20069;-43
2022/07/22 07:41:37;;;;;;;7.00;1.10;;;18.80;94.20;;;;;;5013534;28;20041;-42
2022/07/22 07:44:03;;;;;;;10.05;1.40;;;19.10;93.60;;;;;;5000685;28;20053;-44
2022/07/22 07:46:29;;;;;;;13.57;1.63;;;17.10;94.60;;;;;;5000575;28;20049;-44
2022/07/22 07:48:55;;;;;;;15.30;1.83;;;16.90;93.80;;;;;;5000969;28;20064;-43
2022/07/22 07:51:22;;;;;;;5.10;1.65;;;17.10;95.30;;;;;;5000241;28;20509;-42
2022/07/22 07:53:48;;;;;;;8.00;1.67;;;16.90;95.80;;;;;;5000424;28;20493;-44
2022/07/22 07:56:13;;;;;;;5.55;1.30;;;17.80;95.90;;;;;;5000505;28;20053;-44
2022/07/22 07:58:39;;;;;;;7.78;1.20;;;18.50;92.30;;;;;;5000607;28;20056;-41
2022/07/22 08:01:07;;;;;;;6.53;1.20;;;18.20;92.00;;;;;;5000789;28;20722;-42
2022/07/22 08:03:32;;;;;;;31.40;3.83;;;17.30;91.00;;;;;;5000719;28;20061;-42
2022/07/22 08:05:59;;;;;;;8.45;1.50;;;17.30;92.10;;;;;;5000382;28;20050;-42
2022/07/22 08:08:25;;;;;;;10.90;1.20;;;17.70;92.30;;;;;;5000303;28;20046;-42
2022/07/22 08:10:51;;;;;;;9.43;1.40;;;18.10;91.60;;;;;;4999689;28;20057;-42
2022/07/22 08:13:17;;;;;;;6.40;1.50;;;17.60;73.50;;;;;;5002238;28;20429;-44
2022/07/22 08:15:45;;;;;;;13.25;1.60;;;18.20;75.80;;;;;;5000221;28;20096;-42
2022/07/22 08:18:11;;;;;;;5.28;1.02;;;17.30;73.60;;;;;;5011478;28;20257;-42
2022/07/22 08:20:37;;;;;;;8.02;1.20;;;17.50;80.00;;;;;;4999819;28;20100;-46
2022/07/22 08:23:04;;;;;;;6.03;1.45;;;17.50;77.20;;;;;;4999639;28;20438;-42
2022/07/22 08:25:31;;;;;;;7.80;1.20;;;17.40;85.10;;;;;;5011260;28;20057;-42
2022/07/22 08:27:57;;;;;;;6.10;1.10;;;17.40;89.00;;;;;;4998998;28;20054;-42
2022/07/22 08:30:23;;;;;;;9.35;1.17;;;17.20;89.70;;;;;;5004288;28;20557;-42
2022/07/22 08:32:50;;;;;;;5.13;1.00;;;17.30;90.90;;;;;;4999929;28;20056;-44
2022/07/22 08:35:18;;;;;;;9.20;1.40;;;17.20;92.30;;;;;;4999463;28;20314;-43
2022/07/22 08:37:45;;;;;;;5.57;0.90;;;17.30;93.20;;;;;;5008649;28;20041;-44
2022/07/22 08:40:11;;;;;;;6.40;1.20;;;17.20;91.70;;;;;;5002590;28;20048;-42
2022/07/22 08:42:41;;;;;;;5.20;1.02;;;17.10;92.70;;;;;;4999151;28;20045;-45
2022/07/22 08:45:09;;;;;;;5.18;1.10;;;17.20;93.00;;;;;;5001576;28;20069;-43
2022/07/22 08:47:36;;;;;;;5.85;1.08;;;17.30;93.00;;;;;;4998914;28;20042;-43
2022/07/22 08:50:03;;;;;;;5.13;1.38;;;18.10;93.60;;;;;;4999449;28;20092;-42
2022/07/22 08:52:29;;;;;;;5.88;1.10;;;17.30;94.10;;;;;;5008999;28;20042;-43
2022/07/22 08:54:54;;;;;;;4.63;1.00;;;17.40;93.10;;;;;;4999075;28;20537;-42
2022/07/22 08:57:22;;;;;;;3.75;0.90;;;17.40;92.70;;;;;;4999169;28;20041;-42
2022/07/22 08:59:53;;;;;;;5.05;0.88;;;17.40;91.90;;;;;;4999043;28;20060;-42
2022/07/22 09:02:19;;;;;;;5.32;1.00;;;17.50;91.50;;;;;;4986610;28;20065;-42
2022/07/22 09:04:58;;;;;;;4.03;0.90;;;17.50;80.60;;;;;;4999667;28;20053;-42
2022/07/22 09:07:35;;;;;;;5.63;1.23;;;17.50;84.00;;;;;;5002407;28;20049;-42
2022/07/22 09:10:05;;;;;;;5.28;0.80;;;17.60;82.60;;;;;;5002477;28;20084;-43
2022/07/22 09:12:32;;;;;;;5.32;1.13;;;17.90;78.50;;;;;;4999810;28;20042;-41
2022/07/22 09:15:00;;;;;;;5.43;0.80;;;18.00;79.30;;;;;;5005637;28;20042;-43
2022/07/22 09:17:29;;;;;;;5.18;1.02;;;18.90;79.40;;;;;;4999653;28;20046;-42
2022/07/22 09:19:59;;;;;;;7.63;1.08;;;18.80;78.50;;;;;;4999679;28;20046;-42
2022/07/22 09:22:37;;;;;;;7.35;1.00;;;18.20;78.40;;;;;;5007332;28;20217;-45
2022/07/22 09:25:29;;;;;;;4.78;0.80;;;18.70;72.70;;;;;;4989694;28;20150;-43
2022/07/22 09:28:08;;;;;;;;;;;17.60;65.30;;;;;;4978337;28;20100;-43
2022/07/22 09:30:37;;;;;;;3.08;0.90;;;18.00;76.00;;;;;;4999395;28;19948;-43
2022/07/22 09:33:05;;;;;;;4.53;0.80;;;18.40;67.20;;;;;;4999350;28;20482;-45
2022/07/22 09:35:31;;;;;;;3.00;0.73;;;17.90;65.70;;;;;;4998829;28;20050;-43
2022/07/22 09:38:02;;;;;;;3.05;0.63;;;18.00;59.20;;;;;;4999657;28;20060;-47
2022/07/22 09:40:37;;;;;;;2.83;0.55;;;18.10;54.70;;;;;;5002986;28;20038;-42
2022/07/22 09:43:12;;;;;;;3.17;0.70;;;18.10;48.20;;;;;;4999165;28;20056;-43
2022/07/22 09:45:50;;;;;;;3.40;0.90;;;19.10;36.30;;;;;;4998961;28;20045;-41
2022/07/22 09:48:18;;;;;;;2.78;0.70;;;18.40;32.90;;;;;;4999030;28;20047;-47
2022/07/22 09:50:45;;;;;;;4.57;1.02;;;19.20;23.80;;;;;;4998695;28;20502;-43
2022/07/22 09:53:11;;;;;;;1.80;0.60;;;19.10;17.70;;;;;;4999029;28;20050;-45
2022/07/22 09:55:39;;;;;;;4.28;0.85;;;18.80;13.40;;;;;;4998912;28;20037;-42
2022/07/22 09:58:07;;;;;;;5.93;0.63;;;18.90;12.50;;;;;;4998653;28;20061;-45
2022/07/22 10:00:34;;;;;;;5.35;1.20;;;19.80;11.00;;;;;;4998985;28;20500;-44
2022/07/22 10:03:02;;;;;;;6.82;1.10;;;18.70;28.90;;;;;;5002039;28;20033;-45
2022/07/22 10:05:30;;;;;;;4.78;0.88;;;19.30;50.60;;;;;;5009191;28;20713;-44
2022/07/22 10:07:57;;;;;;;4.43;0.80;;;18.70;59.70;;;;;;5002731;28;20037;-44
2022/07/22 10:10:26;;;;;;;4.18;0.82;;;20.00;62.00;;;;;;5002256;28;20045;-43
2022/07/22 10:12:54;;;;;;;3.28;0.82;;;18.10;67.50;;;;;;5002363;28;20092;-43
2022/07/22 10:15:22;;;;;;;5.50;1.00;;;18.10;71.70;;;;;;5002108;28;20046;-42
2022/07/22 10:17:51;;;;;;;5.78;0.98;;;17.90;70.40;;;;;;5002049;28;20069;-43
2022/07/22 10:20:23;;;;;;;5.72;0.77;;;20.00;76.10;;;;;;5002027;28;20096;-43
2022/07/22 10:23:04;;;;;;;6.70;0.90;;;17.90;69.50;;;;;;5002366;28;20120;-42
2022/07/22 10:25:47;;;;;;;7.93;1.08;;;18.10;65.70;;;;;;5002440;28;20056;-42
2022/07/22 10:28:22;;;;;;;4.22;0.77;;;18.20;66.30;;;;;;5004448;28;20106;-44
2022/07/22 10:30:47;;;;;;;2.92;0.82;;;18.20;46.50;;;;;;5002245;28;20050;-43
2022/07/22 10:33:19;;;;;;;3.05;0.68;;;18.10;49.50;;;;;;5001872;28;20116;-44
2022/07/22 10:35:58;;;;;;;;;;;18.40;52.70;;;;;;5002638;28;20068;-44
2022/07/22 10:38:25;;;;;;;3.95;0.70;;;18.00;19.80;;;;;;5010401;28;19925;-43
2022/07/22 10:40:56;;;;;;;3.47;0.70;;;20.40;45.90;;;;;;5002345;28;20041;-43
2022/07/22 10:43:40;;;;;;;5.37;0.80;;;18.40;40.30;;;;;;5007175;28;20045;-43
2022/07/22 10:46:09;;;;;;;3.72;1.08;;;19.30;21.30;;;;;;5001705;28;20053;-44
2022/07/22 10:48:38;;;;;;;5.70;0.80;;;18.70;31.90;;;;;;5001845;28;20042;-43
2022/07/22 10:51:13;;;;;;;4.90;0.60;;;18.70;26.60;;;;;;5001811;28;20050;-44
2022/07/22 10:53:55;;;;;;;5.78;0.95;;;19.00;15.10;;;;;;5001774;28;20045;-46
2022/07/22 10:56:27;;;;;;;4.80;1.25;;;19.20;13.30;;;;;;5002764;28;20048;-44
2022/07/22 10:58:57;;;;;;;3.13;0.80;;;19.20;1.00;;;;;;5001057;28;20410;-46
2022/07/22 11:01:26;;;;;;;4.93;1.00;;;19.30;1.00;;;;;;5001206;28;20042;-43
2022/07/22 11:03:52;;;;;;;6.15;1.17;;;20.80;1.00;;;;;;5000936;28;20107;-44
2022/07/22 11:06:29;;;;;;;4.75;1.55;;;19.30;1.00;;;;;;5001043;28;20038;-43
2022/07/22 11:08:59;;;;;;;4.28;0.70;;;19.20;1.00;;;;;;5001043;28;20096;-44
2022/07/22 11:11:45;;;;;;;2.88;0.73;;;19.70;1.00;;;;;;5001177;28;20042;-43
2022/07/22 11:14:30;;;;;;;4.15;0.88;;;19.20;1.00;;;;;;5000526;28;20052;-42
2022/07/22 11:17:16;;;;;;;3.97;0.63;;;19.30;1.00;;;;;;5000585;28;20112;-45
2022/07/22 11:19:43;;;;;;;4.85;0.95;;;19.20;2.50;;;;;;5003736;28;20064;-47
2022/07/22 11:22:13;;;;;;;3.20;0.60;;;19.10;1.00;;;;;;5008287;28;20076;-48
2022/07/22 11:24:40;;;;;;;1.88;0.50;;;19.00;1.00;;;;;;5000239;28;20226;-45
2022/07/22 11:27:17;;;;;;;6.05;1.00;;;19.10;13.80;;;;;;5000637;28;20400;-43
2022/07/22 11:29:46;;;;;;;6.03;0.60;;;19.70;1.80;;;;;;5000528;28;20059;-43
2022/07/22 11:32:13;;;;;;;1.60;0.57;;;19.10;6.20;;;;;;5000467;28;20054;-43
2022/07/22 11:34:46;;;;;;;4.03;0.80;;;20.70;1.00;;;;;;5000754;28;20469;-42
2022/07/22 11:37:13;;;;;;;4.13;0.65;;;19.70;1.00;;;;;;4983231;28;20057;-44
2022/07/22 11:39:39;;;;;;;2.78;0.63;;;19.20;1.00;;;;;;5000628;28;20124;-44
2022/07/22 11:42:05;;;;;;;2.85;0.45;;;19.60;1.00;;;;;;5003232;28;20053;-45
2022/07/22 11:44:33;;;;;;;3.58;0.80;;;19.20;1.00;;;;;;4993670;28;20045;-43
2022/07/22 11:46:59;;;;;;;4.93;0.90;;;21.10;1.00;;;;;;4992879;28;20724;-44
2022/07/22 11:49:28;;;;;;;4.57;0.52;;;19.80;2.70;;;;;;5000593;28;20042;-42
2022/07/22 11:51:54;;;;;;;4.75;1.00;;;20.20;1.00;;;;;;5000433;28;20068;-44
2022/07/22 11:54:20;;;;;;;3.15;0.47;;;19.40;1.00;;;;;;5000092;28;20057;-42
2022/07/22 11:56:45;;;;;;;2.55;0.50;;;19.30;1.00;;;;;;4999934;28;20053;-43
2022/07/22 11:59:14;;;;;;;2.42;0.70;;;19.60;1.00;;;;;;4994975;28;20375;-43
2022/07/22 12:01:40;;;;;;;3.90;0.80;;;19.40;1.00;;;;;;4992235;28;20125;-46
2022/07/22 12:04:08;;;;;;;3.80;0.47;;;17.40;1.00;;;;;;4995073;28;20481;-45
2022/07/22 12:06:38;;;;;;;2.15;0.70;;;19.10;1.00;;;;;;4995931;28;20034;-48
2022/07/22 12:09:05;;;;;;;2.83;0.63;;;19.10;1.00;;;;;;5007905;28;20045;-46
2022/07/22 12:11:31;;;;;;;11.52;2.78;;;19.10;1.00;;;;;;4999142;28;20045;-44
2022/07/22 12:14:08;;;;;;;2.15;0.40;;;19.20;1.00;;;;;;4995925;28;20046;-47
2022/07/22 12:16:34;;;;;;;2.45;0.60;;;19.30;1.00;;;;;;5005147;28;20044;-44
2022/07/22 12:19:03;;;;;;;2.78;0.80;;;19.30;1.00;;;;;;5015477;28;20490;-47
2022/07/22 12:21:32;;;;;;;2.92;0.60;;;19.30;1.00;;;;;;4998947;28;20042;-46
2022/07/22 12:24:02;;;;;;;1.73;0.50;;;19.40;1.00;;;;;;4999168;28;20042;-42
2022/07/22 12:26:48;;;;;;;2.38;0.60;;;19.70;1.00;;;;;;4999838;28;20144;-45
2022/07/22 12:29:41;;;;;;;2.70;0.55;;;19.70;1.00;;;;;;4995948;28;20072;-44
2022/07/22 12:32:18;;;;;;;18.75;3.38;;;19.50;1.00;;;;;;4999926;28;20041;-47
2022/07/22 12:34:47;;;;;;;10.35;2.15;;;19.60;1.00;;;;;;5003086;28;20537;-46
2022/07/22 12:37:27;;;;;;;5.32;0.95;;;19.80;1.00;;;;;;4999995;28;20077;-47
2022/07/22 12:40:08;;;;;;;6.70;1.60;;;19.50;1.00;;;;;;4999212;28;20413;-47
2022/07/22 12:42:42;;;;;;;4.07;0.63;;;19.50;1.00;;;;;;5002726;28;20068;-47
2022/07/22 12:45:16;;;;;;;9.35;1.05;;;20.00;1.00;;;;;;4998813;28;20289;-46
2022/07/22 12:48:03;;;;;;;6.60;1.00;;;19.70;1.00;;;;;;4977967;28;20049;-48
2022/07/22 12:51:04;;;;;;;2.30;0.63;;;19.80;1.00;;;;;;4995238;28;20076;-48